Time;durP1;ratioP1;P1;durP2;ratioP2;P2;SDS_P1;SDS_P2;PMS_P1;PMS_P2;Temp;Humidity;BMP_temperature;BMP_pressure;BME280_temperature;BME280_humidity;BME280_pressure;Samples;Min_cycle;Max_cycle;Signal;HPM_P1;HPM_P2
2023/12/28 00:04:08;;;;;;;1999.90;999.90;;;;;;;9.67;91.46;100740.72;10460124;28;20049;-64
2023/12/28 00:09:10;;;;;;;1999.90;999.90;;;;;;;9.48;93.82;100746.94;10459061;28;20083;-65
2023/12/28 00:14:13;;;;;;;1999.90;999.90;;;;;;;9.44;94.41;100766.28;10459693;28;20389;-64
2023/12/28 00:19:16;;;;;;;1999.90;999.90;;;;;;;9.44;97.59;100781.97;10459447;28;20055;-64
2023/12/28 00:24:21;;;;;;;1999.90;999.90;;;;;;;9.55;95.79;100768.34;10459541;28;20049;-64
2023/12/28 00:29:23;;;;;;;1999.90;999.90;;;;;;;9.52;98.70;100771.13;10459131;28;20047;-64
2023/12/28 00:34:26;;;;;;;1999.90;999.90;;;;;;;9.73;98.17;100779.56;10458860;28;20499;-64
2023/12/28 00:39:28;;;;;;;1999.90;999.90;;;;;;;9.62;99.07;100790.63;10458918;28;20063;-64
2023/12/28 00:44:31;;;;;;;1999.90;999.90;;;;;;;9.78;98.73;100792.41;10458613;28;20045;-65
2023/12/28 00:49:33;;;;;;;1999.90;999.90;;;;;;;9.59;100.00;100800.41;10458247;28;20606;-64
2023/12/28 00:54:39;;;;;;;1999.90;999.90;;;;;;;9.59;100.00;100789.94;10458221;28;20626;-64
2023/12/28 00:59:42;;;;;;;1999.90;999.90;;;;;;;9.54;100.00;100800.63;10457005;28;20128;-65
2023/12/28 01:04:44;;;;;;;1999.90;999.90;;;;;;;9.58;100.00;100810.00;10456606;28;20392;-65
2023/12/28 01:09:46;;;;;;;1999.90;999.90;;;;;;;9.80;100.00;100819.31;10457738;28;20106;-64
2023/12/28 01:14:49;;;;;;;1999.90;999.90;;;;;;;9.76;100.00;100818.63;10457404;28;20053;-64
2023/12/28 01:19:51;;;;;;;1999.90;999.90;;;;;;;9.67;100.00;100814.75;10457565;28;20049;-64
2023/12/28 01:24:54;;;;;;;1999.90;999.90;;;;;;;9.78;100.00;100816.75;10457184;28;20095;-65
2023/12/28 01:29:56;;;;;;;1999.90;999.90;;;;;;;9.91;100.00;100824.81;10456783;28;20045;-64
2023/12/28 01:34:58;;;;;;;1999.90;999.90;;;;;;;9.67;100.00;100835.66;10456725;28;20048;-64
2023/12/28 01:40:02;;;;;;;1999.90;999.90;;;;;;;9.74;100.00;100844.00;10456287;28;20083;-64
2023/12/28 01:45:05;;;;;;;1999.90;999.90;;;;;;;9.77;100.00;100851.69;10456550;28;20132;-64
2023/12/28 01:50:08;;;;;;;1999.90;999.90;;;;;;;9.74;100.00;100858.88;10456616;28;20049;-65
2023/12/28 01:55:10;;;;;;;1999.90;999.90;;;;;;;9.93;100.00;100861.34;10432965;22;20048;-64
2023/12/28 02:00:13;;;;;;;1999.90;999.90;;;;;;;9.72;100.00;100858.94;10415264;28;20049;-65
2023/12/28 02:05:15;;;;;;;1999.90;999.90;;;;;;;9.95;100.00;100862.97;10413677;28;20492;-65
2023/12/28 02:10:18;;;;;;;1999.90;999.90;;;;;;;10.02;100.00;100856.47;10414056;28;20572;-64
2023/12/28 02:15:20;;;;;;;1999.90;999.90;;;;;;;9.84;100.00;100857.44;10414836;28;20053;-64
2023/12/28 02:20:23;;;;;;;1999.90;999.90;;;;;;;9.72;100.00;100845.88;10413431;28;20053;-65
2023/12/28 02:25:26;;;;;;;1999.90;999.90;;;;;;;9.77;100.00;100862.16;10413573;28;20045;-64
2023/12/28 02:30:29;;;;;;;1999.90;999.90;;;;;;;9.72;100.00;100845.88;10417895;28;20049;-65
2023/12/28 02:35:48;;;;;;;1999.90;999.90;;;;;;;9.82;100.00;100854.91;10422237;28;20511;-64
2023/12/28 02:40:50;;;;;;;1999.90;999.90;;;;;;;9.76;100.00;100859.63;10422181;28;20059;-65
2023/12/28 02:45:53;;;;;;;1999.90;999.90;;;;;;;9.77;100.00;100843.84;10420597;28;20413;-65
2023/12/28 02:50:55;;;;;;;1999.90;999.90;;;;;;;9.88;100.00;100840.66;10422143;28;20084;-65
2023/12/28 02:55:58;;;;;;;1999.90;999.90;;;;;;;9.84;100.00;100839.16;10421468;28;20107;-65
2023/12/28 03:01:00;;;;;;;1999.90;999.90;;;;;;;9.76;100.00;100842.16;10421460;28;20079;-65
2023/12/28 03:06:03;;;;;;;1999.90;999.90;;;;;;;9.67;100.00;100845.28;10419784;28;20080;-65
2023/12/28 03:11:05;;;;;;;1999.90;999.90;;;;;;;9.62;100.00;100858.59;10421098;28;20488;-64
2023/12/28 03:16:07;;;;;;;1999.90;999.90;;;;;;;9.69;100.00;100843.41;10420767;28;20132;-65
2023/12/28 03:21:10;;;;;;;1999.90;999.90;;;;;;;9.51;100.00;100839.16;10420848;28;20050;-65
2023/12/28 03:26:12;;;;;;;1999.90;999.90;;;;;;;9.72;100.00;100824.97;10420367;28;20056;-64
2023/12/28 03:31:14;;;;;;;1999.90;999.90;;;;;;;9.62;100.00;100827.22;10420174;28;20053;-65
2023/12/28 03:36:20;;;;;;;1999.90;999.90;;;;;;;9.80;100.00;100827.16;10418944;28;20041;-65
2023/12/28 03:41:23;;;;;;;1999.90;999.90;;;;;;;9.62;100.00;100827.22;10418844;28;20081;-65
2023/12/28 03:46:26;;;;;;;1999.90;999.90;;;;;;;9.73;100.00;100820.56;10418865;28;20049;-65
2023/12/28 03:51:28;;;;;;;1999.90;999.90;;;;;;;9.86;100.00;100837.28;10419350;28;20060;-65
2023/12/28 03:56:32;;;;;;;1999.90;999.90;;;;;;;9.68;100.00;100828.66;10419407;28;20052;-64
2023/12/28 04:01:35;;;;;;;1999.90;999.90;;;;;;;9.84;100.00;100815.63;10418558;28;20049;-65
2023/12/28 04:06:38;;;;;;;1999.90;999.90;;;;;;;9.92;100.00;100828.25;10418858;28;20052;-65
2023/12/28 04:11:41;;;;;;;1999.90;999.90;;;;;;;9.70;100.00;100810.25;10417685;28;20053;-65
2023/12/28 04:16:44;;;;;;;1999.90;999.90;;;;;;;9.80;100.00;100827.16;10418539;28;20049;-65
2023/12/28 04:21:46;;;;;;;1999.90;999.90;;;;;;;10.00;100.00;100831.31;10417260;28;20049;-65
2023/12/28 04:26:49;;;;;;;1999.90;999.90;;;;;;;10.00;100.00;100815.59;10418093;28;20096;-65
2023/12/28 04:31:51;;;;;;;1999.90;999.90;;;;;;;9.85;100.00;100825.13;10418395;28;20076;-65
2023/12/28 04:36:53;;;;;;;1999.90;999.90;;;;;;;9.83;100.00;100827.84;10417735;28;20125;-65
2023/12/28 04:41:56;;;;;;;1999.90;999.90;;;;;;;9.90;100.00;100819.66;10417422;28;20132;-65
2023/12/28 04:46:58;;;;;;;1999.90;999.90;;;;;;;10.09;100.00;100827.38;10417338;28;20045;-65
2023/12/28 04:52:01;;;;;;;1999.90;999.90;;;;;;;9.88;100.00;100830.19;10416508;28;20083;-65
2023/12/28 04:57:04;;;;;;;1999.90;999.90;;;;;;;9.92;100.00;100823.88;10417162;28;20051;-65
2023/12/28 05:02:06;;;;;;;1999.90;999.90;;;;;;;10.12;100.00;100837.63;10416565;28;20488;-65
2023/12/28 05:07:09;;;;;;;1999.90;999.90;;;;;;;9.91;100.00;100835.25;10415168;28;20055;-65
2023/12/28 05:12:12;;;;;;;1999.90;999.90;;;;;;;10.18;100.00;100842.53;10415093;28;20059;-65
2023/12/28 05:17:14;;;;;;;1999.90;999.90;;;;;;;10.28;98.62;100842.88;10416148;28;20049;-65
2023/12/28 05:22:16;;;;;;;1999.90;999.90;;;;;;;10.32;97.99;100855.75;10415518;28;20546;-65
2023/12/28 05:27:19;;;;;;;1999.90;999.90;;;;;;;10.53;95.60;100861.53;10415794;28;20136;-65
2023/12/28 05:32:21;;;;;;;1999.90;999.90;;;;;;;10.50;95.83;100879.22;10414503;28;20053;-65
2023/12/28 05:37:24;;;;;;;1999.90;999.90;;;;;;;10.43;95.96;100868.22;10415606;28;20046;-65
2023/12/28 05:42:26;;;;;;;1999.90;999.90;;;;;;;10.29;96.63;100870.72;10415827;28;20428;-65
2023/12/28 05:47:28;;;;;;;1999.90;999.90;;;;;;;10.50;93.83;100860.88;10415491;28;20049;-65
2023/12/28 05:52:31;;;;;;;1999.90;999.90;;;;;;;10.30;96.21;100864.56;10415010;28;20471;-65
2023/12/28 05:57:33;;;;;;;1999.90;999.90;;;;;;;10.32;96.09;100871.47;10415167;28;20053;-64
2023/12/28 06:02:36;;;;;;;1999.90;999.90;;;;;;;10.26;95.74;100866.53;10415495;28;20377;-65
2023/12/28 06:07:38;;;;;;;1999.90;999.90;;;;;;;10.50;93.15;100873.97;10422365;28;20053;-65
2023/12/28 06:12:40;;;;;;;1999.90;999.90;;;;;;;10.37;93.67;100852.84;10423416;28;20060;-65
2023/12/28 06:17:43;;;;;;;1999.90;999.90;;;;;;;10.32;94.35;100860.13;10421983;28;20049;-65
2023/12/28 06:22:48;;;;;;;1999.90;999.90;;;;;;;10.45;94.43;100870.75;10423025;28;20045;-65
2023/12/28 06:27:51;;;;;;;1999.90;999.90;;;;;;;10.52;92.22;100880.81;10422781;28;20077;-65
2023/12/28 06:32:53;;;;;;;1999.90;999.90;;;;;;;10.48;91.81;100897.59;10422710;28;20049;-65
2023/12/28 06:37:56;;;;;;;1999.90;999.90;;;;;;;10.60;91.15;100891.69;10422437;28;20045;-65
2023/12/28 06:42:59;;;;;;;1999.90;999.90;;;;;;;10.55;91.59;100895.50;10422159;28;20397;-65
2023/12/28 06:48:01;;;;;;;1999.90;999.90;;;;;;;10.56;92.99;100897.19;10420612;28;20527;-65
2023/12/28 06:53:04;;;;;;;1999.90;999.90;;;;;;;10.52;92.37;100893.03;10421596;28;20050;-65
2023/12/28 06:58:07;;;;;;;1999.90;999.90;;;;;;;10.62;91.79;100896.84;10421501;28;20136;-65
2023/12/28 07:03:09;;;;;;;1999.90;999.90;;;;;;;10.49;93.16;100898.44;10421392;28;20064;-65
2023/12/28 07:08:12;;;;;;;1999.90;999.90;;;;;;;10.60;92.62;100903.94;10421563;28;20045;-65
2023/12/28 07:13:14;;;;;;;1999.90;999.90;;;;;;;10.58;92.48;100904.03;10420939;28;20513;-65
2023/12/28 07:18:17;;;;;;;1999.90;999.90;;;;;;;10.67;91.87;100907.91;10420687;28;20124;-65
2023/12/28 07:23:19;;;;;;;1999.90;999.90;;;;;;;10.38;94.44;100915.59;10420746;28;20104;-65
2023/12/28 07:28:22;;;;;;;1999.90;999.90;;;;;;;10.49;93.05;100912.41;10419126;28;20472;-65
2023/12/28 07:33:24;;;;;;;1999.90;999.90;;;;;;;10.44;93.75;100919.66;10420971;28;20053;-65
2023/12/28 07:38:27;;;;;;;1999.90;999.90;;;;;;;10.37;93.57;100910.44;10420191;28;20129;-65
2023/12/28 07:43:29;;;;;;;1999.90;999.90;;;;;;;10.07;96.49;100918.13;10419949;28;20393;-65
2023/12/28 07:48:31;;;;;;;1999.90;999.90;;;;;;;10.20;94.42;100914.81;10418364;28;20054;-65
2023/12/28 07:53:34;;;;;;;1999.90;999.90;;;;;;;10.17;94.66;100920.19;10419489;28;20141;-65
2023/12/28 07:58:37;;;;;;;1999.90;999.90;;;;;;;10.29;93.22;100944.84;10419473;28;20149;-65
2023/12/28 08:03:39;;;;;;;1999.90;999.90;;;;;;;10.47;92.58;100961.34;10419133;28;20053;-65
2023/12/28 08:08:42;;;;;;;1999.90;999.90;;;;;;;10.53;93.43;100960.19;10418768;28;20042;-65
2023/12/28 08:13:44;;;;;;;1999.90;999.90;;;;;;;10.29;96.13;100967.53;10418609;28;20493;-65
2023/12/28 08:18:47;;;;;;;1999.90;999.90;;;;;;;10.36;94.33;100956.72;10418861;28;20575;-65
2023/12/28 08:23:50;;;;;;;1999.90;999.90;;;;;;;10.61;92.16;100968.47;10418422;28;20096;-65
2023/12/28 08:28:52;;;;;;;1999.90;999.90;;;;;;;10.68;92.49;100979.47;10416181;28;20053;-65
2023/12/28 08:33:54;;;;;;;1999.90;999.90;;;;;;;10.59;91.76;100979.03;10416839;28;20060;-65
2023/12/28 08:38:57;;;;;;;1999.90;999.90;;;;;;;10.80;91.77;100970.09;10417056;28;20053;-65
2023/12/28 08:43:59;;;;;;;1999.90;999.90;;;;;;;10.75;92.22;100952.84;10417425;28;20480;-65
2023/12/28 08:49:04;;;;;;;1999.90;999.90;;;;;;;10.61;94.18;100958.00;10417329;28;20041;-65
2023/12/28 08:54:08;;;;;;;1999.90;999.90;;;;;;;10.65;92.62;100969.97;10417036;28;20064;-65
2023/12/28 08:59:10;;;;;;;1999.90;999.90;;;;;;;10.82;91.81;100991.78;10417156;28;20052;-65
2023/12/28 09:04:14;;;;;;;1999.90;999.90;;;;;;;10.81;91.42;100990.09;10416686;28;20056;-65
2023/12/28 09:09:16;;;;;;;1999.90;999.90;;;;;;;10.77;92.06;100994.66;10416705;28;20045;-65
2023/12/28 09:14:19;;;;;;;1999.90;999.90;;;;;;;10.85;90.24;100989.84;10416962;28;20049;-65
2023/12/28 09:19:21;;;;;;;1999.90;999.90;;;;;;;10.69;92.09;101002.94;10416083;28;20507;-65
2023/12/28 09:24:24;;;;;;;1999.90;999.90;;;;;;;10.82;90.13;101007.50;10415086;28;20045;-65
2023/12/28 09:29:26;;;;;;;1999.90;999.90;;;;;;;10.79;92.47;101013.75;10415792;28;20076;-65
2023/12/28 09:34:28;;;;;;;1999.90;999.90;;;;;;;10.84;91.99;101019.56;10415758;28;20503;-65
2023/12/28 09:39:31;;;;;;;1999.90;999.90;;;;;;;11.06;91.07;101018.38;10414591;28;20489;-65
2023/12/28 09:44:33;;;;;;;1999.90;999.90;;;;;;;11.02;89.08;101027.34;10415459;28;20103;-65
2023/12/28 09:49:37;;;;;;;1999.90;999.90;;;;;;;11.29;86.11;101027.56;10414267;28;20050;-65
2023/12/28 09:54:39;;;;;;;1999.90;999.90;;;;;;;11.72;85.96;101030.38;10415468;28;20057;-65
2023/12/28 09:59:42;;;;;;;1999.90;999.90;;;;;;;11.48;86.74;101022.97;10415296;28;20049;-65
2023/12/28 10:04:44;;;;;;;1999.90;999.90;;;;;;;11.48;86.56;101030.84;10415106;28;20049;-65
2023/12/28 10:09:47;;;;;;;1999.90;999.90;;;;;;;11.64;85.59;101036.03;10414884;28;20053;-65
2023/12/28 10:14:51;;;;;;;1999.90;999.90;;;;;;;11.49;84.22;101048.25;10414997;28;20057;-65
2023/12/28 10:19:55;;;;;;;1999.90;999.90;;;;;;;11.67;84.04;101041.13;10414842;28;20045;-65
2023/12/28 10:25:02;;;;;;;1999.90;999.90;;;;;;;11.58;86.05;101040.78;10414770;28;20057;-65
2023/12/28 10:30:05;;;;;;;1999.90;999.90;;;;;;;11.58;84.08;101046.88;10413457;28;20057;-65
2023/12/28 10:35:08;;;;;;;1999.90;999.90;;;;;;;11.49;83.86;101029.91;10414668;28;20054;-65
2023/12/28 10:40:15;;;;;;;1999.90;999.90;;;;;;;11.24;86.92;101011.28;10414387;28;20120;-65
2023/12/28 10:45:23;;;;;;;1999.90;999.90;;;;;;;11.37;84.41;101025.38;10413088;28;20427;-65
2023/12/28 10:50:28;;;;;;;1999.90;999.90;;;;;;;11.38;85.30;101024.44;10414832;28;20045;-65
2023/12/28 10:55:56;;;;;;;1999.90;999.90;;;;;;;11.62;84.46;101016.09;10422092;28;20444;-65
2023/12/28 11:01:02;;;;;;;1999.90;999.90;;;;;;;11.61;84.48;101051.13;10413867;28;20046;-65
2023/12/28 11:06:05;;;;;;;1999.90;999.90;;;;;;;11.62;83.37;101016.94;10420083;28;20095;-65
2023/12/28 11:11:08;;;;;;;1999.90;999.90;;;;;;;11.43;84.01;101006.69;10419286;28;20091;-65
2023/12/28 11:16:11;;;;;;;1999.90;999.90;;;;;;;11.77;81.58;101011.72;10418891;28;20488;-65
2023/12/28 11:21:14;;;;;;;1999.90;999.90;;;;;;;11.43;83.85;101004.06;10418144;28;20042;-65
2023/12/28 11:26:20;;;;;;;1999.90;999.90;;;;;;;11.59;80.80;101004.00;10418614;28;20124;-65
2023/12/28 11:31:23;;;;;;;1999.90;999.90;;;;;;;11.46;82.00;100989.91;10419341;28;20051;-66
2023/12/28 11:36:47;;;;;;;1999.90;999.90;;;;;;;11.74;83.09;100994.38;10418850;28;20531;-65
2023/12/28 11:41:50;;;;;;;1999.90;999.90;;;;;;;11.35;83.57;100990.53;10419100;28;20045;-65
2023/12/28 11:46:52;;;;;;;1999.90;999.90;;;;;;;11.69;84.99;100985.94;10419756;28;20077;-65
2023/12/28 11:51:59;;;;;;;1999.90;999.90;;;;;;;11.53;84.95;100983.38;10419545;28;20132;-65
2023/12/28 11:57:02;;;;;;;1999.90;999.90;;;;;;;11.75;83.84;100979.47;10418657;28;20123;-65
2023/12/28 12:02:07;;;;;;;1999.90;999.90;;;;;;;11.43;85.08;100996.19;10418102;28;20120;-65
2023/12/28 12:07:09;;;;;;;1999.90;999.90;;;;;;;11.42;83.15;100977.94;10419003;28;20060;-65
2023/12/28 12:12:12;;;;;;;1999.90;999.90;;;;;;;11.26;83.62;100965.72;10418651;28;20463;-65
2023/12/28 12:17:15;;;;;;;1999.90;999.90;;;;;;;11.45;85.17;100948.91;10418778;28;20084;-65
2023/12/28 12:22:18;;;;;;;1999.90;999.90;;;;;;;11.60;82.27;100960.25;10418370;28;20053;-65
2023/12/28 12:27:21;;;;;;;1999.90;999.90;;;;;;;11.56;84.14;100964.84;10416974;28;20080;-66
2023/12/28 12:32:24;;;;;;;1999.90;999.90;;;;;;;11.76;83.29;100953.16;10417502;28;20552;-65
2023/12/28 12:37:26;;;;;;;1999.90;999.90;;;;;;;11.50;83.81;100958.19;10416523;28;20053;-68
2023/12/28 12:42:29;;;;;;;1999.90;999.90;;;;;;;11.09;87.19;100950.94;10416265;28;20553;-68
2023/12/28 12:47:34;;;;;;;1999.90;999.90;;;;;;;11.40;86.25;100943.06;10417263;28;20050;-66
2023/12/28 12:52:38;;;;;;;1999.90;999.90;;;;;;;11.42;84.46;100952.53;10417437;28;20064;-66
2023/12/28 12:57:43;;;;;;;1999.90;999.90;;;;;;;11.22;84.83;100939.75;10417523;28;20051;-66
2023/12/28 13:02:45;;;;;;;1999.90;999.90;;;;;;;11.22;85.52;100958.94;10416914;28;20133;-66
2023/12/28 13:07:48;;;;;;;1999.90;999.90;;;;;;;11.30;85.58;100958.50;10416015;28;20052;-66
2023/12/28 13:12:50;;;;;;;1999.90;999.90;;;;;;;11.23;85.55;100949.28;10416253;28;20057;-65
2023/12/28 13:17:53;;;;;;;1999.90;999.90;;;;;;;11.32;85.28;100956.63;10416803;28;20049;-65
2023/12/28 13:22:56;;;;;;;1999.90;999.90;;;;;;;11.37;85.25;100948.50;10416175;28;20041;-68
2023/12/28 13:28:00;;;;;;;1999.90;999.90;;;;;;;11.24;87.57;100956.22;10415846;28;20447;-66
2023/12/28 13:33:05;;;;;;;1999.90;999.90;;;;;;;11.24;85.95;100948.38;10415855;28;20060;-67
2023/12/28 13:38:08;;;;;;;1999.90;999.90;;;;;;;11.17;87.37;100962.75;10398220;28;20077;-67
2023/12/28 13:43:10;;;;;;;1999.90;999.90;;;;;;;11.33;85.16;100963.56;10415966;28;20053;-65
2023/12/28 13:48:12;;;;;;;1999.90;999.90;;;;;;;11.29;87.11;100965.50;10415231;28;20489;-65
2023/12/28 13:53:15;;;;;;;1999.90;999.90;;;;;;;11.27;86.10;100956.06;10415532;28;20132;-65
2023/12/28 13:58:18;;;;;;;1999.90;999.90;;;;;;;11.29;86.90;100954.19;10415207;28;20056;-65
2023/12/28 14:03:20;;;;;;;1999.90;999.90;;;;;;;11.09;87.86;100966.66;10415414;28;20049;-66
2023/12/28 14:08:23;;;;;;;1999.90;999.90;;;;;;;11.14;88.60;100961.16;10438185;22;20056;-67
2023/12/28 14:13:25;;;;;;;1999.90;999.90;;;;;;;11.19;86.92;100951.25;10456091;28;20049;-67
2023/12/28 14:18:28;;;;;;;1999.90;999.90;;;;;;;11.30;87.03;100956.72;10456505;28;20049;-67
2023/12/28 14:23:31;;;;;;;1999.90;999.90;;;;;;;11.29;88.66;100947.16;10455939;28;20044;-67
2023/12/28 14:28:35;;;;;;;1999.90;999.90;;;;;;;11.04;88.60;100945.09;10463212;28;20044;-67
2023/12/28 14:33:39;;;;;;;1999.90;999.90;;;;;;;11.02;89.31;100946.97;10463820;28;20044;-68
2023/12/28 14:38:42;;;;;;;1999.90;999.90;;;;;;;10.91;89.84;100929.25;10462502;28;20415;-67
2023/12/28 14:43:44;;;;;;;1999.90;999.90;;;;;;;11.00;89.45;100921.81;10463613;28;20057;-67
2023/12/28 14:48:47;;;;;;;1999.90;999.90;;;;;;;11.04;86.84;100913.66;10463556;28;20440;-68
2023/12/28 14:53:50;;;;;;;1999.90;999.90;;;;;;;11.09;87.61;100922.09;10463296;28;20049;-68
2023/12/28 14:58:52;;;;;;;1999.90;999.90;;;;;;;11.11;87.32;100907.16;10463195;28;20083;-68
2023/12/28 15:03:55;;;;;;;1999.90;999.90;;;;;;;11.04;88.96;100902.34;10462389;28;20048;-68
2023/12/28 15:08:57;;;;;;;1999.90;999.90;;;;;;;11.05;88.22;100923.22;10461181;28;20053;-66
2023/12/28 15:14:00;;;;;;;1999.90;999.90;;;;;;;11.09;88.43;100923.88;10462407;28;20419;-68
2023/12/28 15:19:03;;;;;;;1999.90;999.90;;;;;;;10.92;86.80;100889.00;10462351;28;20045;-68
2023/12/28 15:24:06;;;;;;;1999.90;999.90;;;;;;;10.93;88.46;100897.75;10461838;28;20049;-68
2023/12/28 15:29:09;;;;;;;1999.90;999.90;;;;;;;10.93;87.07;100903.81;10461202;28;20072;-68
2023/12/28 15:34:11;;;;;;;1999.90;999.90;;;;;;;10.98;85.08;100903.56;10462007;28;20132;-68
2023/12/28 15:39:14;;;;;;;1999.90;999.90;;;;;;;11.15;83.68;100900.78;10461227;28;20533;-68
2023/12/28 15:44:16;;;;;;;1999.90;999.90;;;;;;;11.03;85.17;100893.66;10461043;28;20484;-67
2023/12/28 15:49:19;;;;;;;1999.90;999.90;;;;;;;11.10;84.13;100900.22;10460794;28;20111;-68
2023/12/28 15:54:21;;;;;;;1999.90;999.90;;;;;;;10.96;86.09;100898.41;10461613;28;20052;-68
2023/12/28 15:59:24;;;;;;;1999.90;999.90;;;;;;;10.92;83.62;100891.63;10460746;28;20056;-68
2023/12/28 16:04:26;;;;;;;1999.90;999.90;;;;;;;11.10;84.09;100897.59;10460548;28;20567;-68
2023/12/28 16:09:29;;;;;;;1999.90;999.90;;;;;;;10.94;85.59;100902.91;10459005;28;20135;-68
2023/12/28 16:14:32;;;;;;;1999.90;999.90;;;;;;;10.93;86.48;100874.16;10459989;28;20053;-68
2023/12/28 16:19:35;;;;;;;1999.90;999.90;;;;;;;10.96;85.73;100873.97;10459901;28;20067;-68
2023/12/28 16:24:37;;;;;;;1999.90;999.90;;;;;;;10.74;85.80;100869.13;10459448;28;20451;-68
2023/12/28 16:29:40;;;;;;;1999.90;999.90;;;;;;;10.84;84.50;100865.03;10459548;28;20060;-68
2023/12/28 16:34:42;;;;;;;1999.90;999.90;;;;;;;10.78;86.68;100871.47;10459093;28;20049;-68
2023/12/28 16:39:44;;;;;;;1999.90;999.90;;;;;;;10.72;83.51;100866.56;10459041;28;20087;-68
2023/12/28 16:44:47;;;;;;;1999.90;999.90;;;;;;;10.76;86.70;100849.78;10458423;28;20128;-68
2023/12/28 16:49:49;;;;;;;1999.90;999.90;;;;;;;10.73;85.59;100857.81;10456838;28;20081;-68
2023/12/28 16:54:52;;;;;;;1999.90;999.90;;;;;;;10.60;85.55;100857.66;10458237;28;20523;-67
2023/12/28 16:59:55;;;;;;;1999.90;999.90;;;;;;;10.50;86.38;100869.56;10458041;28;20084;-68
2023/12/28 17:05:12;;;;;;;1999.90;999.90;;;;;;;10.54;86.84;100860.63;10457891;28;20515;-68
2023/12/28 17:10:15;;;;;;;1999.90;999.90;;;;;;;10.69;87.90;100864.16;10457969;28;20080;-68
2023/12/28 17:15:18;;;;;;;1999.90;999.90;;;;;;;10.62;87.36;100862.78;10457883;28;20087;-68
2023/12/28 17:20:21;;;;;;;1999.90;999.90;;;;;;;10.55;86.86;100867.53;10457545;28;20057;-68
2023/12/28 17:26:17;;;;;;;1999.90;999.90;;;;;;;10.52;86.09;100869.47;10457111;28;20411;-68
2023/12/28 17:31:21;;;;;;;1999.90;999.90;;;;;;;10.48;87.29;100871.44;10434371;28;20123;-68
2023/12/28 17:36:26;;;;;;;1999.90;999.90;;;;;;;10.77;84.31;100869.78;10456981;28;20060;-67
2023/12/28 17:41:30;;;;;;;1999.90;999.90;;;;;;;10.58;85.56;100856.91;10457083;28;20045;-68
2023/12/28 17:46:53;;;;;;;1999.90;999.90;;;;;;;10.72;83.76;100866.56;10455711;28;20049;-67
2023/12/28 17:51:57;;;;;;;1999.90;999.90;;;;;;;10.62;86.29;100849.72;10455333;28;20049;-68
2023/12/28 17:57:01;;;;;;;1999.90;999.90;;;;;;;10.76;84.85;100844.53;10455558;28;20049;-68
2023/12/28 18:02:03;;;;;;;1999.90;999.90;;;;;;;10.63;87.10;100838.31;10455594;28;20051;-68
2023/12/28 18:07:05;;;;;;;1999.90;999.90;;;;;;;10.62;86.13;100836.63;10456017;28;20080;-68
2023/12/28 18:12:11;;;;;;;1999.90;999.90;;;;;;;10.60;85.87;100838.47;10456300;28;20059;-68
2023/12/28 18:17:13;;;;;;;1999.90;999.90;;;;;;;10.81;84.88;100841.66;10455962;28;20055;-68
2023/12/28 18:22:16;;;;;;;1999.90;999.90;;;;;;;10.67;86.09;100828.50;10455051;28;20049;-68
2023/12/28 18:27:18;;;;;;;1999.90;999.90;;;;;;;10.50;85.95;100814.59;10455888;28;20140;-68
2023/12/28 18:32:20;;;;;;;1999.90;999.90;;;;;;;10.50;86.75;100819.00;10454781;28;20051;-68
2023/12/28 18:37:23;;;;;;;1999.90;999.90;;;;;;;10.64;84.68;100820.81;10455643;28;20482;-68
2023/12/28 18:42:25;;;;;;;1999.90;999.90;;;;;;;10.53;86.22;100831.91;10454387;28;20129;-68
2023/12/28 18:47:27;;;;;;;1999.90;999.90;;;;;;;10.60;85.09;100822.78;10455931;28;20060;-68
2023/12/28 18:52:30;;;;;;;1999.90;999.90;;;;;;;10.71;88.23;100816.94;10455334;28;20045;-68
2023/12/28 18:57:32;;;;;;;1999.90;999.90;;;;;;;10.59;87.62;100824.56;10455204;28;20139;-68
2023/12/28 19:02:35;;;;;;;1999.90;999.90;;;;;;;10.55;89.25;100823.03;10454504;28;20507;-68
2023/12/28 19:07:37;;;;;;;1999.90;999.90;;;;;;;10.64;86.04;100805.09;10454950;28;20496;-68
2023/12/28 19:12:39;;;;;;;1999.90;999.90;;;;;;;10.67;85.09;100821.47;10457508;28;20059;-68
2023/12/28 19:17:42;;;;;;;1999.90;999.90;;;;;;;10.64;85.66;100812.97;10462806;28;20052;-68
2023/12/28 19:22:45;;;;;;;1999.90;999.90;;;;;;;10.57;86.05;100817.72;10461758;28;20049;-68
2023/12/28 19:27:49;;;;;;;1999.90;999.90;;;;;;;10.74;85.47;100798.41;10461702;28;20075;-67
2023/12/28 19:32:51;;;;;;;1999.90;999.90;;;;;;;10.63;84.62;100785.13;10461824;28;20098;-68
2023/12/28 19:37:55;;;;;;;1999.90;999.90;;;;;;;10.70;83.85;100796.91;10461422;28;20508;-68
2023/12/28 19:42:57;;;;;;;1999.90;999.90;;;;;;;10.80;83.37;100789.38;10461346;28;20041;-68
2023/12/28 19:48:01;;;;;;;1999.90;999.90;;;;;;;10.68;84.96;100769.97;10460200;28;20049;-68
2023/12/28 19:53:04;;;;;;;1999.90;999.90;;;;;;;10.75;84.80;100772.13;10459586;28;20056;-68
2023/12/28 19:58:07;;;;;;;1999.90;999.90;;;;;;;10.69;85.66;100771.66;10460810;28;20056;-68
2023/12/28 20:03:09;;;;;;;1999.90;999.90;;;;;;;10.52;87.16;100767.38;10442971;28;20055;-68
2023/12/28 20:08:12;;;;;;;1999.90;999.90;;;;;;;10.39;89.38;100768.09;10458937;28;20057;-68
2023/12/28 20:13:14;;;;;;;1999.90;999.90;;;;;;;10.62;89.16;100768.53;10460211;28;20040;-68
2023/12/28 20:18:17;;;;;;;1999.90;999.90;;;;;;;10.57;89.76;100758.34;10459836;28;20087;-68
2023/12/28 20:23:19;;;;;;;1999.90;999.90;;;;;;;10.41;88.59;100766.22;10458887;28;20511;-68
2023/12/28 20:28:22;;;;;;;1999.90;999.90;;;;;;;10.53;88.07;100774.31;10459472;28;20053;-68
2023/12/28 20:33:24;;;;;;;1999.90;999.90;;;;;;;10.73;87.43;100757.47;10458909;28;20056;-68
2023/12/28 20:38:27;;;;;;;1999.90;999.90;;;;;;;10.50;88.39;100756.16;10459609;28;20056;-68
2023/12/28 20:43:30;;;;;;;1999.90;999.90;;;;;;;10.38;90.54;100770.81;10457731;28;20052;-68
2023/12/28 20:48:32;;;;;;;1999.90;999.90;;;;;;;10.69;88.44;100748.09;10459257;28;20132;-68
2023/12/28 20:53:36;;;;;;;1999.90;999.90;;;;;;;10.57;88.95;100750.50;10458527;28;20051;-68
2023/12/28 20:58:39;;;;;;;1999.90;999.90;;;;;;;10.34;90.74;100746.59;10458238;28;20456;-68
2023/12/28 21:03:42;;;;;;;1999.90;999.90;;;;;;;10.59;90.02;100747.78;10458266;28;20053;-68
2023/12/28 21:08:44;;;;;;;1999.90;999.90;;;;;;;10.50;91.17;100746.53;10457890;28;20114;-68
2023/12/28 21:13:49;;;;;;;1999.90;999.90;;;;;;;10.49;90.68;100733.53;10457681;28;20055;-68
2023/12/28 21:18:51;;;;;;;1999.90;999.90;;;;;;;10.44;92.02;100746.03;10457611;28;20106;-68
2023/12/28 21:23:54;;;;;;;1999.90;999.90;;;;;;;10.38;92.02;100737.63;10457497;28;20155;-68
2023/12/28 21:28:56;;;;;;;1999.90;999.90;;;;;;;10.63;91.08;100724.91;10456048;28;20045;-68
2023/12/28 21:33:59;;;;;;;1999.90;999.90;;;;;;;10.63;90.38;100730.97;10457130;28;20051;-68
2023/12/28 21:39:02;;;;;;;1999.90;999.90;;;;;;;10.60;90.20;100725.91;10456897;28;20494;-68
2023/12/28 21:44:05;;;;;;;1999.90;999.90;;;;;;;10.51;90.99;100700.28;10439203;28;20491;-68
2023/12/28 21:49:07;;;;;;;1999.90;999.90;;;;;;;10.54;90.85;100715.78;10455591;28;20124;-68
2023/12/28 21:54:10;;;;;;;1999.90;999.90;;;;;;;10.51;91.79;100703.72;10455344;28;20044;-68
2023/12/28 21:59:15;;;;;;;1999.90;999.90;;;;;;;10.64;90.20;100698.63;10456821;28;20045;-68